sensor_id;sensor_type;location;lat;lon;timestamp;pressure;altitude;pressure_sealevel;temperature;humidity
32456;BME280;18912;43.270;27.942;2023-05-24T00:02:13;97841.69;;;17.24;55.71
32456;BME280;18912;43.270;27.942;2023-05-24T00:04:39;97841.88;;;17.18;56.07
32456;BME280;18912;43.270;27.942;2023-05-24T00:07:05;97843.50;;;16.92;56.98
32456;BME280;18912;43.270;27.942;2023-05-24T00:09:31;97842.13;;;16.95;56.60
32456;BME280;18912;43.270;27.942;2023-05-24T00:11:56;97842.97;;;16.95;56.76
32456;BME280;18912;43.270;27.942;2023-05-24T00:14:21;97838.34;;;16.96;56.87
32456;BME280;18912;43.270;27.942;2023-05-24T00:16:47;97838.47;;;17.06;56.66
32456;BME280;18912;43.270;27.942;2023-05-24T00:19:12;97834.69;;;17.12;56.39
32456;BME280;18912;43.270;27.942;2023-05-24T00:21:43;97832.66;;;17.24;55.80
32456;BME280;18912;43.270;27.942;2023-05-24T00:24:08;97830.06;;;17.12;55.73
32456;BME280;18912;43.270;27.942;2023-05-24T00:26:35;97830.41;;;16.94;56.18
32456;BME280;18912;43.270;27.942;2023-05-24T00:29:00;97843.03;;;16.78;57.52
32456;BME280;18912;43.270;27.942;2023-05-24T00:31:25;97846.72;;;16.67;57.55
32456;BME280;18912;43.270;27.942;2023-05-24T00:33:51;97843.72;;;16.69;57.98
32456;BME280;18912;43.270;27.942;2023-05-24T00:36:16;97848.50;;;16.78;57.76
32456;BME280;18912;43.270;27.942;2023-05-24T00:38:41;97845.25;;;16.81;57.49
32456;BME280;18912;43.270;27.942;2023-05-24T00:41:07;97840.50;;;16.94;57.56
32456;BME280;18912;43.270;27.942;2023-05-24T00:43:32;97841.63;;;16.98;57.58
32456;BME280;18912;43.270;27.942;2023-05-24T00:48:29;97839.97;;;16.97;57.38
32456;BME280;18912;43.270;27.942;2023-05-24T00:50:54;97836.28;;;17.08;57.04
32456;BME280;18912;43.270;27.942;2023-05-24T00:53:21;97833.09;;;17.16;56.75
32456;BME280;18912;43.270;27.942;2023-05-24T00:55:46;97834.06;;;17.05;56.93
32456;BME280;18912;43.270;27.942;2023-05-24T00:58:12;97834.03;;;17.00;57.31
32456;BME280;18912;43.270;27.942;2023-05-24T01:00:38;97837.75;;;16.94;57.09
32456;BME280;18912;43.270;27.942;2023-05-24T01:03:03;97835.03;;;16.94;56.93
32456;BME280;18912;43.270;27.942;2023-05-24T01:05:29;97826.09;;;16.98;56.80
32456;BME280;18912;43.270;27.942;2023-05-24T01:13:11;97833.88;;;16.90;56.41
32456;BME280;18912;43.270;27.942;2023-05-24T01:18:23;97826.09;;;16.98;54.79
32456;BME280;18912;43.270;27.942;2023-05-24T01:23:46;97826.28;;;16.92;55.04
32456;BME280;18912;43.270;27.942;2023-05-24T01:26:28;97827.16;;;16.97;55.63
32456;BME280;18912;43.270;27.942;2023-05-24T01:28:55;97833.31;;;16.88;55.49
32456;BME280;18912;43.270;27.942;2023-05-24T01:31:21;97835.47;;;16.64;57.05
32456;BME280;18912;43.270;27.942;2023-05-24T01:33:47;97832.59;;;16.54;57.79
32456;BME280;18912;43.270;27.942;2023-05-24T01:36:12;97840.28;;;16.40;58.63
32456;BME280;18912;43.270;27.942;2023-05-24T01:38:37;97842.47;;;16.22;60.79
32456;BME280;18912;43.270;27.942;2023-05-24T01:41:49;97830.88;;;16.48;60.98
32456;BME280;18912;43.270;27.942;2023-05-24T01:44:12;97833.06;;;16.67;60.99
32456;BME280;18912;43.270;27.942;2023-05-24T01:46:38;97827.81;;;16.83;60.21
32456;BME280;18912;43.270;27.942;2023-05-24T01:51:30;97836.34;;;17.13;60.25
32456;BME280;18912;43.270;27.942;2023-05-24T01:53:58;97830.44;;;17.21;60.88
32456;BME280;18912;43.270;27.942;2023-05-24T01:56:24;97828.66;;;17.31;61.14
32456;BME280;18912;43.270;27.942;2023-05-24T01:58:51;97836.69;;;17.43;61.18
32456;BME280;18912;43.270;27.942;2023-05-24T02:01:18;97833.00;;;17.54;60.87
32456;BME280;18912;43.270;27.942;2023-05-24T02:03:43;97836.28;;;17.51;61.04
32456;BME280;18912;43.270;27.942;2023-05-24T02:06:09;97832.69;;;17.50;61.74
32456;BME280;18912;43.270;27.942;2023-05-24T02:08:34;97829.81;;;17.62;61.22
32456;BME280;18912;43.270;27.942;2023-05-24T02:11:00;97833.88;;;17.59;60.65
32456;BME280;18912;43.270;27.942;2023-05-24T02:13:25;97831.97;;;17.60;60.59
32456;BME280;18912;43.270;27.942;2023-05-24T02:15:50;97823.25;;;17.63;60.26
32456;BME280;18912;43.270;27.942;2023-05-24T02:18:17;97829.91;;;17.72;59.88
32456;BME280;18912;43.270;27.942;2023-05-24T02:20:43;97832.84;;;17.65;59.29
32456;BME280;18912;43.270;27.942;2023-05-24T02:23:08;97834.97;;;17.58;58.97
32456;BME280;18912;43.270;27.942;2023-05-24T02:25:33;97825.41;;;17.61;58.94
32456;BME280;18912;43.270;27.942;2023-05-24T02:27:59;97837.06;;;17.51;58.50
32456;BME280;18912;43.270;27.942;2023-05-24T02:30:24;97843.56;;;17.45;57.87
32456;BME280;18912;43.270;27.942;2023-05-24T02:32:50;97846.75;;;17.37;57.90
32456;BME280;18912;43.270;27.942;2023-05-24T02:35:15;97847.47;;;17.28;58.81
32456;BME280;18912;43.270;27.942;2023-05-24T02:37:40;97847.47;;;17.28;59.08
32456;BME280;18912;43.270;27.942;2023-05-24T02:40:06;97858.03;;;17.46;59.29
32456;BME280;18912;43.270;27.942;2023-05-24T02:42:32;97863.38;;;17.57;58.82
32456;BME280;18912;43.270;27.942;2023-05-24T02:44:57;97847.66;;;17.69;58.78
32456;BME280;18912;43.270;27.942;2023-05-24T02:47:22;97848.81;;;17.79;58.72
32456;BME280;18912;43.270;27.942;2023-05-24T02:49:50;97848.63;;;17.85;58.71
32456;BME280;18912;43.270;27.942;2023-05-24T02:52:16;97864.34;;;18.00;58.80
32456;BME280;18912;43.270;27.942;2023-05-24T02:54:45;97866.03;;;18.06;59.34
32456;BME280;18912;43.270;27.942;2023-05-24T02:57:10;97861.47;;;18.16;59.29
32456;BME280;18912;43.270;27.942;2023-05-24T02:59:36;97872.50;;;18.31;59.69
32456;BME280;18912;43.270;27.942;2023-05-24T03:02:01;97870.88;;;18.30;59.90
32456;BME280;18912;43.270;27.942;2023-05-24T03:04:26;97867.13;;;18.41;59.66
32456;BME280;18912;43.270;27.942;2023-05-24T03:06:52;97864.44;;;18.46;59.88
32456;BME280;18912;43.270;27.942;2023-05-24T03:09:17;97863.91;;;18.44;59.43
32456;BME280;18912;43.270;27.942;2023-05-24T03:11:43;97861.63;;;18.36;60.12
32456;BME280;18912;43.270;27.942;2023-05-24T03:14:08;97858.75;;;18.53;60.09
32456;BME280;18912;43.270;27.942;2023-05-24T03:16:35;97848.28;;;18.45;60.24
32456;BME280;18912;43.270;27.942;2023-05-24T03:19:00;97854.44;;;18.62;60.18
32456;BME280;18912;43.270;27.942;2023-05-24T03:21:26;97864.75;;;18.92;59.85
32456;BME280;18912;43.270;27.942;2023-05-24T03:23:51;97859.06;;;19.03;59.30
32456;BME280;18912;43.270;27.942;2023-05-24T03:26:16;97860.19;;;19.12;59.32
32456;BME280;18912;43.270;27.942;2023-05-24T03:28:43;97863.22;;;19.21;59.36
32456;BME280;18912;43.270;27.942;2023-05-24T03:31:09;97855.06;;;19.36;58.97
32456;BME280;18912;43.270;27.942;2023-05-24T03:33:34;97852.94;;;19.48;59.11
32456;BME280;18912;43.270;27.942;2023-05-24T03:36:00;97859.78;;;19.55;59.39
32456;BME280;18912;43.270;27.942;2023-05-24T03:38:26;97865.84;;;19.63;59.80
32456;BME280;18912;43.270;27.942;2023-05-24T03:40:52;97866.63;;;19.53;59.43
32456;BME280;18912;43.270;27.942;2023-05-24T03:43:17;97867.50;;;19.64;60.11
32456;BME280;18912;43.270;27.942;2023-05-24T03:45:42;97864.25;;;19.87;59.74
32456;BME280;18912;43.270;27.942;2023-05-24T03:48:08;97871.38;;;20.03;59.64
32456;BME280;18912;43.270;27.942;2023-05-24T03:50:34;97876.88;;;20.13;59.42
32456;BME280;18912;43.270;27.942;2023-05-24T03:52:59;97875.28;;;20.22;59.60
32456;BME280;18912;43.270;27.942;2023-05-24T03:55:24;97882.13;;;20.39;59.47
32456;BME280;18912;43.270;27.942;2023-05-24T03:57:50;97882.66;;;20.46;59.69
32456;BME280;18912;43.270;27.942;2023-05-24T04:00:15;97877.19;;;20.57;59.81
32456;BME280;18912;43.270;27.942;2023-05-24T04:02:40;97882.66;;;20.62;59.99
32456;BME280;18912;43.270;27.942;2023-05-24T04:05:06;97882.09;;;20.70;60.22
32456;BME280;18912;43.270;27.942;2023-05-24T04:07:35;97889.78;;;20.78;60.50
32456;BME280;18912;43.270;27.942;2023-05-24T04:10:01;97881.50;;;20.88;60.40
32456;BME280;18912;43.270;27.942;2023-05-24T04:12:27;97890.00;;;21.01;60.57
32456;BME280;18912;43.270;27.942;2023-05-24T04:14:52;97885.31;;;21.12;60.74
32456;BME280;18912;43.270;27.942;2023-05-24T04:17:17;97890.75;;;21.27;60.80
32456;BME280;18912;43.270;27.942;2023-05-24T04:19:43;97896.25;;;21.22;60.84
32456;BME280;18912;43.270;27.942;2023-05-24T04:22:10;97897.59;;;21.29;60.69
32456;BME280;18912;43.270;27.942;2023-05-24T04:24:36;97902.81;;;21.36;60.50
32456;BME280;18912;43.270;27.942;2023-05-24T04:27:01;97900.81;;;21.52;60.16
32456;BME280;18912;43.270;27.942;2023-05-24T04:29:27;97892.28;;;21.53;60.30
32456;BME280;18912;43.270;27.942;2023-05-24T04:31:52;97891.66;;;21.66;60.28
32456;BME280;18912;43.270;27.942;2023-05-24T04:34:17;97905.38;;;21.81;60.30
32456;BME280;18912;43.270;27.942;2023-05-24T04:36:46;97901.13;;;21.99;60.12
32456;BME280;18912;43.270;27.942;2023-05-24T04:39:13;97895.84;;;22.07;59.84
32456;BME280;18912;43.270;27.942;2023-05-24T04:41:38;97912.03;;;22.14;59.96
32456;BME280;18912;43.270;27.942;2023-05-24T04:44:04;97907.03;;;22.21;59.68
32456;BME280;18912;43.270;27.942;2023-05-24T04:46:29;97898.88;;;22.45;59.58
32456;BME280;18912;43.270;27.942;2023-05-24T04:48:55;97905.09;;;22.60;59.21
32456;BME280;18912;43.270;27.942;2023-05-24T04:51:20;97909.88;;;22.78;59.22
32456;BME280;18912;43.270;27.942;2023-05-24T04:53:46;97905.66;;;22.86;59.07
32456;BME280;18912;43.270;27.942;2023-05-24T04:56:11;97895.31;;;22.73;59.48
32456;BME280;18912;43.270;27.942;2023-05-24T04:58:39;97894.44;;;23.06;59.15
32456;BME280;18912;43.270;27.942;2023-05-24T05:01:05;97892.56;;;23.25;59.10
32456;BME280;18912;43.270;27.942;2023-05-24T05:03:30;97894.66;;;23.38;58.80
32456;BME280;18912;43.270;27.942;2023-05-24T05:05:55;97893.91;;;23.28;59.17
32456;BME280;18912;43.270;27.942;2023-05-24T05:08:20;97894.25;;;23.68;58.66
32456;BME280;18912;43.270;27.942;2023-05-24T05:10:46;97896.06;;;23.96;57.90
32456;BME280;18912;43.270;27.942;2023-05-24T05:13:12;97905.28;;;24.11;57.18
32456;BME280;18912;43.270;27.942;2023-05-24T05:15:37;97898.00;;;24.33;56.22
32456;BME280;18912;43.270;27.942;2023-05-24T05:18:02;97904.53;;;24.56;56.25
32456;BME280;18912;43.270;27.942;2023-05-24T05:20:28;97904.06;;;24.67;55.81
32456;BME280;18912;43.270;27.942;2023-05-24T05:22:53;97907.63;;;24.86;54.97
32456;BME280;18912;43.270;27.942;2023-05-24T05:25:18;97908.88;;;24.94;54.69
32456;BME280;18912;43.270;27.942;2023-05-24T05:27:44;97909.25;;;24.87;53.41
32456;BME280;18912;43.270;27.942;2023-05-24T05:30:09;97915.00;;;24.91;52.76
32456;BME280;18912;43.270;27.942;2023-05-24T05:32:35;97910.91;;;25.02;52.31
32456;BME280;18912;43.270;27.942;2023-05-24T05:35:00;97912.94;;;25.42;51.82
32456;BME280;18912;43.270;27.942;2023-05-24T05:37:25;97920.88;;;25.98;50.83
32456;BME280;18912;43.270;27.942;2023-05-24T05:39:51;97921.72;;;26.34;50.19
32456;BME280;18912;43.270;27.942;2023-05-24T05:42:16;97919.03;;;26.87;48.13
32456;BME280;18912;43.270;27.942;2023-05-24T05:44:42;97922.41;;;27.06;46.64
32456;BME280;18912;43.270;27.942;2023-05-24T05:47:07;97919.56;;;27.50;44.80
32456;BME280;18912;43.270;27.942;2023-05-24T05:49:33;97918.69;;;27.89;43.42
32456;BME280;18912;43.270;27.942;2023-05-24T05:52:03;97913.44;;;27.88;44.02
32456;BME280;18912;43.270;27.942;2023-05-24T05:54:29;97911.34;;;27.85;43.79
32456;BME280;18912;43.270;27.942;2023-05-24T05:56:55;97912.72;;;28.30;42.55
32456;BME280;18912;43.270;27.942;2023-05-24T05:59:20;97915.31;;;28.86;42.05
32456;BME280;18912;43.270;27.942;2023-05-24T06:01:45;97920.56;;;28.79;40.78
32456;BME280;18912;43.270;27.942;2023-05-24T06:04:12;97919.09;;;28.39;41.51
32456;BME280;18912;43.270;27.942;2023-05-24T06:06:38;97922.13;;;29.23;40.31
32456;BME280;18912;43.270;27.942;2023-05-24T06:09:03;97930.25;;;29.83;38.68
32456;BME280;18912;43.270;27.942;2023-05-24T06:11:29;97932.78;;;29.12;39.87
32456;BME280;18912;43.270;27.942;2023-05-24T06:13:55;97933.78;;;29.16;38.04
32456;BME280;18912;43.270;27.942;2023-05-24T06:16:20;97941.59;;;30.07;37.28
32456;BME280;18912;43.270;27.942;2023-05-24T06:18:45;97936.19;;;30.52;36.39
32456;BME280;18912;43.270;27.942;2023-05-24T06:21:14;97937.06;;;30.64;37.20
32456;BME280;18912;43.270;27.942;2023-05-24T06:23:39;97935.25;;;30.27;36.71
32456;BME280;18912;43.270;27.942;2023-05-24T06:26:05;97950.28;;;30.34;37.30
32456;BME280;18912;43.270;27.942;2023-05-24T06:28:33;97938.72;;;29.95;37.20
32456;BME280;18912;43.270;27.942;2023-05-24T06:30:59;97940.81;;;29.98;36.62
32456;BME280;18912;43.270;27.942;2023-05-24T06:33:24;97945.59;;;29.97;36.87
32456;BME280;18912;43.270;27.942;2023-05-24T06:35:50;97939.56;;;29.49;38.06
32456;BME280;18912;43.270;27.942;2023-05-24T06:38:15;97936.75;;;29.58;36.56
32456;BME280;18912;43.270;27.942;2023-05-24T06:40:41;97943.41;;;30.03;35.96
32456;BME280;18912;43.270;27.942;2023-05-24T06:43:07;97938.31;;;29.76;36.44
32456;BME280;18912;43.270;27.942;2023-05-24T06:45:32;97938.03;;;29.98;35.37
32456;BME280;18912;43.270;27.942;2023-05-24T06:47:57;97937.72;;;29.99;35.69
32456;BME280;18912;43.270;27.942;2023-05-24T06:50:23;97945.47;;;30.14;36.77
32456;BME280;18912;43.270;27.942;2023-05-24T06:52:49;97942.47;;;30.19;35.09
32456;BME280;18912;43.270;27.942;2023-05-24T06:55:14;97946.75;;;30.17;35.46
32456;BME280;18912;43.270;27.942;2023-05-24T06:57:40;97949.97;;;30.07;36.33
32456;BME280;18912;43.270;27.942;2023-05-24T07:00:05;97948.13;;;29.82;35.98
32456;BME280;18912;43.270;27.942;2023-05-24T07:02:35;97951.38;;;30.13;36.08
32456;BME280;18912;43.270;27.942;2023-05-24T07:05:00;97951.22;;;30.38;35.55
32456;BME280;18912;43.270;27.942;2023-05-24T07:07:26;97953.06;;;30.05;36.20
32456;BME280;18912;43.270;27.942;2023-05-24T07:09:53;97952.66;;;30.45;34.67
32456;BME280;18912;43.270;27.942;2023-05-24T07:12:18;97959.72;;;31.04;34.30
32456;BME280;18912;43.270;27.942;2023-05-24T07:14:44;97950.34;;;31.20;34.50
32456;BME280;18912;43.270;27.942;2023-05-24T07:17:10;97946.66;;;30.96;34.77
32456;BME280;18912;43.270;27.942;2023-05-24T07:19:35;97947.44;;;30.84;35.32
32456;BME280;18912;43.270;27.942;2023-05-24T07:22:01;97946.78;;;30.99;36.07
32456;BME280;18912;43.270;27.942;2023-05-24T07:24:26;97956.19;;;30.95;35.86
32456;BME280;18912;43.270;27.942;2023-05-24T07:26:52;97953.47;;;31.64;34.46
32456;BME280;18912;43.270;27.942;2023-05-24T07:29:21;97956.56;;;31.95;34.24
32456;BME280;18912;43.270;27.942;2023-05-24T07:31:46;97963.47;;;32.61;34.11
32456;BME280;18912;43.270;27.942;2023-05-24T07:34:12;97957.50;;;32.75;34.01
32456;BME280;18912;43.270;27.942;2023-05-24T07:36:37;97961.50;;;33.01;32.00
32456;BME280;18912;43.270;27.942;2023-05-24T07:39:05;97954.97;;;32.97;31.25
32456;BME280;18912;43.270;27.942;2023-05-24T07:41:30;97951.97;;;33.18;30.67
32456;BME280;18912;43.270;27.942;2023-05-24T07:43:57;97946.69;;;32.61;31.45
32456;BME280;18912;43.270;27.942;2023-05-24T07:46:22;97954.28;;;32.88;30.71
32456;BME280;18912;43.270;27.942;2023-05-24T07:48:47;97956.69;;;33.30;30.26
32456;BME280;18912;43.270;27.942;2023-05-24T07:51:13;97962.34;;;33.18;29.63
32456;BME280;18912;43.270;27.942;2023-05-24T07:53:38;97954.59;;;33.27;30.03
32456;BME280;18912;43.270;27.942;2023-05-24T07:56:04;97962.69;;;33.59;30.56
32456;BME280;18912;43.270;27.942;2023-05-24T07:58:30;97962.09;;;32.83;31.94
32456;BME280;18912;43.270;27.942;2023-05-24T08:00:55;97963.34;;;33.53;32.03
32456;BME280;18912;43.270;27.942;2023-05-24T08:03:21;97952.84;;;33.65;31.06
32456;BME280;18912;43.270;27.942;2023-05-24T08:05:49;97957.31;;;33.39;30.89
32456;BME280;18912;43.270;27.942;2023-05-24T08:08:15;97957.00;;;33.56;31.51
32456;BME280;18912;43.270;27.942;2023-05-24T08:10:40;97966.19;;;33.41;31.45
32456;BME280;18912;43.270;27.942;2023-05-24T08:13:06;97964.25;;;33.88;31.59
32456;BME280;18912;43.270;27.942;2023-05-24T08:15:31;97961.47;;;34.04;31.22
32456;BME280;18912;43.270;27.942;2023-05-24T08:17:56;97957.72;;;33.84;31.66
32456;BME280;18912;43.270;27.942;2023-05-24T08:20:22;97957.16;;;33.04;32.43
32456;BME280;18912;43.270;27.942;2023-05-24T08:22:47;97970.44;;;31.91;33.65
32456;BME280;18912;43.270;27.942;2023-05-24T08:25:12;97960.50;;;32.06;33.89
32456;BME280;18912;43.270;27.942;2023-05-24T08:27:38;97965.91;;;32.63;33.22
32456;BME280;18912;43.270;27.942;2023-05-24T08:30:03;97962.81;;;33.94;31.75
32456;BME280;18912;43.270;27.942;2023-05-24T08:32:29;97967.25;;;33.64;32.60
32456;BME280;18912;43.270;27.942;2023-05-24T08:34:54;97966.00;;;33.34;32.51
32456;BME280;18912;43.270;27.942;2023-05-24T08:37:20;97958.09;;;33.67;32.49
32456;BME280;18912;43.270;27.942;2023-05-24T08:39:46;97961.44;;;32.46;33.80
32456;BME280;18912;43.270;27.942;2023-05-24T08:42:12;97961.72;;;33.67;32.57
32456;BME280;18912;43.270;27.942;2023-05-24T08:44:44;97963.22;;;33.49;32.05
32456;BME280;18912;43.270;27.942;2023-05-24T08:47:11;97972.41;;;34.09;31.88
32456;BME280;18912;43.270;27.942;2023-05-24T08:49:37;97964.44;;;33.64;31.56
32456;BME280;18912;43.270;27.942;2023-05-24T08:52:04;97967.03;;;33.14;32.97
32456;BME280;18912;43.270;27.942;2023-05-24T08:54:32;97971.91;;;32.13;34.58
32456;BME280;18912;43.270;27.942;2023-05-24T08:56:58;97968.16;;;30.95;36.42
32456;BME280;18912;43.270;27.942;2023-05-24T08:59:23;97972.47;;;31.82;36.08
32456;BME280;18912;43.270;27.942;2023-05-24T09:01:50;97981.84;;;31.98;35.48
32456;BME280;18912;43.270;27.942;2023-05-24T09:04:17;97980.88;;;31.05;37.70
32456;BME280;18912;43.270;27.942;2023-05-24T09:06:42;97991.63;;;30.74;38.51
32456;BME280;18912;43.270;27.942;2023-05-24T09:09:08;97993.81;;;30.68;37.57
32456;BME280;18912;43.270;27.942;2023-05-24T09:11:33;97985.56;;;29.55;39.73
32456;BME280;18912;43.270;27.942;2023-05-24T09:13:59;97982.16;;;29.49;39.14
32456;BME280;18912;43.270;27.942;2023-05-24T09:16:26;97996.13;;;29.32;39.65
32456;BME280;18912;43.270;27.942;2023-05-24T09:18:51;97989.06;;;29.90;38.71
32456;BME280;18912;43.270;27.942;2023-05-24T09:21:17;97987.03;;;29.99;38.85
32456;BME280;18912;43.270;27.942;2023-05-24T09:23:43;97992.56;;;29.23;39.58
32456;BME280;18912;43.270;27.942;2023-05-24T09:26:09;98002.41;;;29.76;38.60
32456;BME280;18912;43.270;27.942;2023-05-24T09:28:35;97984.31;;;29.35;38.44
32456;BME280;18912;43.270;27.942;2023-05-24T09:31:01;97988.94;;;28.97;39.04
32456;BME280;18912;43.270;27.942;2023-05-24T09:33:31;97995.59;;;28.36;40.17
32456;BME280;18912;43.270;27.942;2023-05-24T09:35:57;97986.94;;;29.40;38.69
32456;BME280;18912;43.270;27.942;2023-05-24T09:38:22;98003.34;;;28.65;40.89
32456;BME280;18912;43.270;27.942;2023-05-24T09:41:02;97997.31;;;28.72;40.82
32456;BME280;18912;43.270;27.942;2023-05-24T09:43:28;97982.31;;;28.08;40.55
32456;BME280;18912;43.270;27.942;2023-05-24T09:45:54;97986.34;;;28.75;38.52
32456;BME280;18912;43.270;27.942;2023-05-24T09:48:22;97988.84;;;29.48;39.04
32456;BME280;18912;43.270;27.942;2023-05-24T09:51:03;97979.00;;;29.60;38.26
32456;BME280;18912;43.270;27.942;2023-05-24T09:53:33;97987.88;;;29.53;38.74
32456;BME280;18912;43.270;27.942;2023-05-24T09:55:59;97991.06;;;28.92;39.04
32456;BME280;18912;43.270;27.942;2023-05-24T09:58:29;97996.28;;;28.50;40.78
32456;BME280;18912;43.270;27.942;2023-05-24T10:01:03;97991.59;;;27.95;40.76
32456;BME280;18912;43.270;27.942;2023-05-24T10:03:30;97986.19;;;27.28;43.20
32456;BME280;18912;43.270;27.942;2023-05-24T10:05:55;97988.44;;;27.88;42.59
32456;BME280;18912;43.270;27.942;2023-05-24T10:08:22;97991.41;;;27.91;41.83
32456;BME280;18912;43.270;27.942;2023-05-24T10:10:47;98002.03;;;27.50;42.65
32456;BME280;18912;43.270;27.942;2023-05-24T10:13:13;97994.59;;;28.15;41.96
32456;BME280;18912;43.270;27.942;2023-05-24T10:15:42;97997.56;;;28.19;42.20
32456;BME280;18912;43.270;27.942;2023-05-24T10:18:08;97997.38;;;28.07;42.57
32456;BME280;18912;43.270;27.942;2023-05-24T10:20:33;97981.84;;;27.36;42.73
32456;BME280;18912;43.270;27.942;2023-05-24T10:23:00;98007.41;;;26.80;43.61
32456;BME280;18912;43.270;27.942;2023-05-24T10:25:26;97990.28;;;26.78;43.17
32456;BME280;18912;43.270;27.942;2023-05-24T10:27:53;97990.00;;;27.32;42.55
32456;BME280;18912;43.270;27.942;2023-05-24T10:30:23;97992.63;;;26.71;42.00
32456;BME280;18912;43.270;27.942;2023-05-24T10:32:51;98000.28;;;27.10;42.70
32456;BME280;18912;43.270;27.942;2023-05-24T10:35:17;97979.69;;;26.80;42.11
32456;BME280;18912;43.270;27.942;2023-05-24T10:37:47;97995.81;;;26.78;41.56
32456;BME280;18912;43.270;27.942;2023-05-24T10:40:18;97984.91;;;27.04;42.21
32456;BME280;18912;43.270;27.942;2023-05-24T10:42:45;97989.00;;;27.06;42.75
32456;BME280;18912;43.270;27.942;2023-05-24T10:50:34;97981.00;;;27.57;41.49
32456;BME280;18912;43.270;27.942;2023-05-24T10:53:16;97972.38;;;26.84;42.20
32456;BME280;18912;43.270;27.942;2023-05-24T10:58:17;97971.34;;;26.44;42.63
32456;BME280;18912;43.270;27.942;2023-05-24T11:00:43;97972.06;;;26.86;42.18
32456;BME280;18912;43.270;27.942;2023-05-24T11:03:10;97969.09;;;26.82;42.29
32456;BME280;18912;43.270;27.942;2023-05-24T11:08:11;97964.88;;;27.37;41.40
32456;BME280;18912;43.270;27.942;2023-05-24T11:10:37;97969.97;;;27.83;40.45
32456;BME280;18912;43.270;27.942;2023-05-24T11:13:03;97975.09;;;27.50;40.33
32456;BME280;18912;43.270;27.942;2023-05-24T11:15:31;97980.69;;;27.06;41.42
32456;BME280;18912;43.270;27.942;2023-05-24T11:20:33;97968.19;;;27.17;41.14
32456;BME280;18912;43.270;27.942;2023-05-24T11:22:58;97975.78;;;27.34;41.16
32456;BME280;18912;43.270;27.942;2023-05-24T11:25:25;97981.28;;;27.03;41.28
32456;BME280;18912;43.270;27.942;2023-05-24T11:27:51;97975.63;;;27.08;41.49
32456;BME280;18912;43.270;27.942;2023-05-24T11:30:16;97983.09;;;27.60;40.42
32456;BME280;18912;43.270;27.942;2023-05-24T11:32:46;97971.44;;;28.28;39.66
32456;BME280;18912;43.270;27.942;2023-05-24T11:35:11;97978.56;;;27.64;40.29
32456;BME280;18912;43.270;27.942;2023-05-24T11:37:36;97978.41;;;28.09;39.38
32456;BME280;18912;43.270;27.942;2023-05-24T11:40:02;97985.66;;;27.88;39.62
32456;BME280;18912;43.270;27.942;2023-05-24T11:42:29;97989.00;;;27.98;38.90
32456;BME280;18912;43.270;27.942;2023-05-24T11:44:54;97978.16;;;28.79;37.57
32456;BME280;18912;43.270;27.942;2023-05-24T11:47:20;97990.94;;;28.71;37.87
32456;BME280;18912;43.270;27.942;2023-05-24T11:49:49;97979.44;;;29.07;37.61
32456;BME280;18912;43.270;27.942;2023-05-24T11:52:14;97975.13;;;29.35;36.47
32456;BME280;18912;43.270;27.942;2023-05-24T11:54:40;97981.94;;;28.57;36.84
32456;BME280;18912;43.270;27.942;2023-05-24T11:57:06;97975.66;;;28.26;38.22
32456;BME280;18912;43.270;27.942;2023-05-24T11:59:36;97971.09;;;28.47;37.32
32456;BME280;18912;43.270;27.942;2023-05-24T12:02:03;97974.88;;;28.51;37.01
32456;BME280;18912;43.270;27.942;2023-05-24T12:04:29;97961.81;;;28.60;37.39
32456;BME280;18912;43.270;27.942;2023-05-24T12:06:55;97964.53;;;27.69;38.46
32456;BME280;18912;43.270;27.942;2023-05-24T12:09:21;97968.75;;;28.06;38.39
32456;BME280;18912;43.270;27.942;2023-05-24T12:11:47;97969.31;;;27.16;39.57
32456;BME280;18912;43.270;27.942;2023-05-24T12:14:14;97972.06;;;27.38;39.39
32456;BME280;18912;43.270;27.942;2023-05-24T12:16:44;97971.94;;;27.83;38.59
32456;BME280;18912;43.270;27.942;2023-05-24T12:19:18;97976.84;;;28.59;37.83
32456;BME280;18912;43.270;27.942;2023-05-24T12:21:45;97965.22;;;27.75;38.41
32456;BME280;18912;43.270;27.942;2023-05-24T12:24:11;97966.97;;;28.02;37.94
32456;BME280;18912;43.270;27.942;2023-05-24T12:26:45;97968.56;;;27.55;38.93
32456;BME280;18912;43.270;27.942;2023-05-24T12:29:11;97967.06;;;26.96;39.38
32456;BME280;18912;43.270;27.942;2023-05-24T12:31:40;97957.44;;;27.55;38.86
32456;BME280;18912;43.270;27.942;2023-05-24T12:34:06;97949.16;;;28.11;37.61
32456;BME280;18912;43.270;27.942;2023-05-24T12:36:32;97958.78;;;27.57;38.84
32456;BME280;18912;43.270;27.942;2023-05-24T12:38:59;97949.63;;;27.57;38.27
32456;BME280;18912;43.270;27.942;2023-05-24T12:41:29;97946.78;;;27.79;37.94
32456;BME280;18912;43.270;27.942;2023-05-24T12:43:54;97951.31;;;28.31;37.35
32456;BME280;18912;43.270;27.942;2023-05-24T12:46:19;97943.94;;;27.70;38.31
32456;BME280;18912;43.270;27.942;2023-05-24T12:48:45;97946.28;;;27.77;38.58
32456;BME280;18912;43.270;27.942;2023-05-24T12:51:10;97940.53;;;27.34;38.89
32456;BME280;18912;43.270;27.942;2023-05-24T12:53:36;97942.38;;;27.87;38.72
32456;BME280;18912;43.270;27.942;2023-05-24T12:56:01;97940.34;;;28.09;38.30
32456;BME280;18912;43.270;27.942;2023-05-24T12:58:27;97931.84;;;27.66;38.58
32456;BME280;18912;43.270;27.942;2023-05-24T13:00:52;97937.22;;;28.19;38.01
32456;BME280;18912;43.270;27.942;2023-05-24T13:03:18;97935.84;;;27.83;39.11
32456;BME280;18912;43.270;27.942;2023-05-24T13:05:43;97931.34;;;28.04;39.23
32456;BME280;18912;43.270;27.942;2023-05-24T13:08:10;97928.00;;;27.93;38.51
32456;BME280;18912;43.270;27.942;2023-05-24T13:10:35;97930.03;;;28.27;38.46
32456;BME280;18912;43.270;27.942;2023-05-24T13:13:01;97920.06;;;28.51;37.98
32456;BME280;18912;43.270;27.942;2023-05-24T13:15:26;97921.72;;;28.70;37.76